createdAt,value
2017-10-10T00:00:04.104Z,88.50
2017-10-10T00:02:31.056Z,88.70
2017-10-10T00:04:57.988Z,88.70
2017-10-10T00:07:24.837Z,88.60
2017-10-10T00:09:51.763Z,88.60
2017-10-10T00:12:18.612Z,88.70
2017-10-10T00:14:45.448Z,88.80
2017-10-10T00:17:12.364Z,88.90
2017-10-10T00:19:39.216Z,89.20
2017-10-10T00:22:06.067Z,89.10
2017-10-10T00:24:33.058Z,89.00
2017-10-10T00:27:00.009Z,89.30
2017-10-10T00:29:26.850Z,89.20
2017-10-10T00:31:53.693Z,89.30
2017-10-10T00:34:20.620Z,89.30
2017-10-10T00:36:47.607Z,89.20
2017-10-10T00:39:14.533Z,89.30
2017-10-10T00:41:41.472Z,89.40
2017-10-10T00:44:08.307Z,89.30
2017-10-10T00:46:35.161Z,89.30
2017-10-10T00:49:02.177Z,89.20
2017-10-10T00:51:29.111Z,89.30
2017-10-10T00:53:55.985Z,89.30
2017-10-10T00:56:22.869Z,89.20
2017-10-10T00:58:49.896Z,89.40
2017-10-10T01:01:16.880Z,89.30
2017-10-10T01:03:43.856Z,89.10
2017-10-10T01:06:10.761Z,89.10
2017-10-10T01:08:37.620Z,89.00
2017-10-10T01:11:04.573Z,88.90
2017-10-10T01:13:31.448Z,88.80
2017-10-10T01:15:58.395Z,88.60
2017-10-10T01:18:25.349Z,88.30
2017-10-10T01:20:52.296Z,88.30
2017-10-10T01:23:19.249Z,88.30
2017-10-10T01:25:46.255Z,88.50
2017-10-10T01:28:13.200Z,88.60
2017-10-10T01:30:40.134Z,88.90
2017-10-10T01:33:07.164Z,88.90
2017-10-10T01:35:34.136Z,89.00
2017-10-10T01:38:01.237Z,89.00
2017-10-10T01:40:28.168Z,88.90
2017-10-10T01:42:55.031Z,89.10
2017-10-10T01:45:22.048Z,89.10
2017-10-10T01:47:48.943Z,89.30
2017-10-10T01:50:15.866Z,89.50
2017-10-10T01:52:43.263Z,89.90
2017-10-10T01:55:10.955Z,89.50
2017-10-10T01:57:37.821Z,89.50
2017-10-10T02:00:04.720Z,89.90
2017-10-10T02:02:31.747Z,89.80
2017-10-10T02:04:59.384Z,89.80
2017-10-10T02:07:26.323Z,89.80
2017-10-10T02:09:53.196Z,90.00
2017-10-10T02:12:20.144Z,90.00
2017-10-10T02:14:47.068Z,90.00
2017-10-10T02:17:13.949Z,90.00
2017-10-10T02:19:41.677Z,89.90
2017-10-10T02:22:08.528Z,89.90
2017-10-10T02:24:35.427Z,89.90
2017-10-10T02:27:02.353Z,89.70
2017-10-10T02:29:29.948Z,89.60
2017-10-10T02:31:56.871Z,89.60
2017-10-10T02:34:23.719Z,89.70
2017-10-10T02:36:50.636Z,89.40
2017-10-10T02:39:17.621Z,89.50
2017-10-10T02:41:44.523Z,89.80
2017-10-10T02:44:11.488Z,90.10
2017-10-10T02:46:39.089Z,90.00
2017-10-10T02:49:05.973Z,90.00
2017-10-10T02:51:32.974Z,89.90
2017-10-10T02:54:01.000Z,89.90
2017-10-10T02:56:27.886Z,89.90
2017-10-10T02:58:54.752Z,90.00
2017-10-10T03:01:22.357Z,90.00
2017-10-10T03:03:50.004Z,89.90
2017-10-10T03:06:16.920Z,89.90
2017-10-10T03:08:43.744Z,89.70
2017-10-10T03:11:10.676Z,89.70
2017-10-10T03:13:37.604Z,89.80
2017-10-10T03:16:04.459Z,89.70
2017-10-10T03:18:31.304Z,89.80
2017-10-10T03:20:58.243Z,89.90
2017-10-10T03:23:25.829Z,90.00
2017-10-10T03:25:52.840Z,90.00
2017-10-10T03:28:19.684Z,90.00
2017-10-10T03:30:46.544Z,90.10
2017-10-10T03:33:13.460Z,90.00
2017-10-10T03:35:40.451Z,90.00
2017-10-10T03:38:07.367Z,89.80
2017-10-10T03:40:34.271Z,90.00
2017-10-10T03:43:01.185Z,90.00
2017-10-10T03:45:28.040Z,89.80
2017-10-10T03:47:54.892Z,90.00
2017-10-10T03:50:21.805Z,89.90
2017-10-10T03:52:48.724Z,89.80
2017-10-10T03:55:15.672Z,89.60
2017-10-10T03:57:42.586Z,89.60
2017-10-10T04:00:09.443Z,89.70
2017-10-10T04:02:36.371Z,89.60
2017-10-10T04:05:03.230Z,89.30
2017-10-10T04:07:30.095Z,89.20
2017-10-10T04:09:57.010Z,89.50
2017-10-10T04:12:23.881Z,89.60
2017-10-10T04:14:50.746Z,89.70
2017-10-10T04:17:17.757Z,89.70
2017-10-10T04:19:44.607Z,89.60
2017-10-10T04:22:11.548Z,89.60
2017-10-10T04:24:38.460Z,89.30
2017-10-10T04:27:17.993Z,89.00
2017-10-10T04:29:44.835Z,89.10
2017-10-10T04:32:11.751Z,89.20
2017-10-10T04:34:38.669Z,89.20
2017-10-10T04:37:05.592Z,89.10
2017-10-10T04:39:32.507Z,89.00
2017-10-10T04:42:00.140Z,88.90
2017-10-10T04:44:27.004Z,88.80
2017-10-10T04:46:54.667Z,88.70
2017-10-10T04:49:22.293Z,88.80
2017-10-10T04:51:49.154Z,88.80
2017-10-10T04:54:16.077Z,88.70
2017-10-10T04:56:42.941Z,88.60
2017-10-10T04:59:09.928Z,88.30
2017-10-10T05:01:36.772Z,88.30
2017-10-10T05:04:03.629Z,88.60
2017-10-10T05:06:30.607Z,88.10
2017-10-10T05:08:57.453Z,88.00
2017-10-10T05:11:24.368Z,88.00
2017-10-10T05:13:51.287Z,87.80
2017-10-10T05:16:18.216Z,87.90
2017-10-10T05:18:45.089Z,87.90
2017-10-10T05:21:12.098Z,87.80
2017-10-10T05:23:39.054Z,88.00
2017-10-10T05:26:05.972Z,87.90
2017-10-10T05:28:32.900Z,87.90
2017-10-10T05:30:59.891Z,88.00
2017-10-10T05:33:26.805Z,88.00
2017-10-10T05:35:53.755Z,88.00
2017-10-10T05:38:20.660Z,88.20
2017-10-10T05:40:47.649Z,88.00
2017-10-10T05:43:14.625Z,88.20
2017-10-10T05:45:41.502Z,88.40
2017-10-10T05:48:08.520Z,88.50
2017-10-10T05:50:35.453Z,88.10
2017-10-10T05:53:02.304Z,88.20
2017-10-10T05:55:29.228Z,87.80
2017-10-10T05:57:57.628Z,87.60
2017-10-10T06:00:24.713Z,87.90
2017-10-10T06:02:51.572Z,88.00
2017-10-10T06:05:35.400Z,88.10
2017-10-10T06:08:03.244Z,87.40
2017-10-10T06:10:32.040Z,87.20
2017-10-10T06:12:58.872Z,87.40
2017-10-10T06:15:25.801Z,87.20
2017-10-10T06:17:52.717Z,87.40
2017-10-10T06:20:19.746Z,87.20
2017-10-10T06:22:46.684Z,87.00
2017-10-10T06:25:13.677Z,87.00
2017-10-10T06:27:40.545Z,86.90
2017-10-10T06:30:07.511Z,86.80
2017-10-10T06:32:34.352Z,87.10
2017-10-10T06:35:01.212Z,87.40
2017-10-10T06:37:28.157Z,87.80
2017-10-10T06:39:55.101Z,88.50
2017-10-10T06:42:22.013Z,88.30
2017-10-10T06:44:48.916Z,88.50
2017-10-10T06:47:15.784Z,88.90
2017-10-10T06:49:42.714Z,88.90
2017-10-10T06:52:09.713Z,89.00
2017-10-10T06:54:36.556Z,89.50
2017-10-10T06:57:03.413Z,89.90
2017-10-10T06:59:31.315Z,90.00
2017-10-10T07:01:58.188Z,90.00
2017-10-10T07:04:25.095Z,90.00
2017-10-10T07:06:51.956Z,90.30
2017-10-10T07:09:18.912Z,90.20
2017-10-10T07:11:50.328Z,90.30
2017-10-10T07:14:17.188Z,90.30
2017-10-10T07:16:44.064Z,90.30
2017-10-10T07:19:10.985Z,90.00
2017-10-10T07:21:37.842Z,90.10
2017-10-10T07:24:06.268Z,90.20
2017-10-10T07:26:36.888Z,90.10
2017-10-10T07:29:04.784Z,90.00
2017-10-10T07:31:38.008Z,90.00
2017-10-10T07:34:10.812Z,90.20
2017-10-10T07:36:39.350Z,90.10
2017-10-10T07:39:07.273Z,90.30
2017-10-10T07:41:36.282Z,90.20
2017-10-10T07:44:09.648Z,90.70
2017-10-10T07:46:37.576Z,90.40
2017-10-10T07:49:07.054Z,90.60
2017-10-10T07:51:39.996Z,90.40
2017-10-10T07:54:08.108Z,90.40
2017-10-10T07:56:42.272Z,90.60
2017-10-10T07:59:09.237Z,90.50
2017-10-10T08:01:36.096Z,90.70
2017-10-10T08:04:07.953Z,90.70
2017-10-10T08:06:39.212Z,90.70
2017-10-10T08:09:13.336Z,90.80
2017-10-10T08:11:42.003Z,91.00
2017-10-10T08:14:09.584Z,90.90
2017-10-10T08:16:41.296Z,90.90
2017-10-10T08:19:09.653Z,91.10
2017-10-10T08:24:32.642Z,90.80
2017-10-10T08:27:02.459Z,90.70
2017-10-10T08:29:37.573Z,90.50
2017-10-10T08:32:05.752Z,90.20
2017-10-10T08:37:22.516Z,90.00
2017-10-10T08:39:56.779Z,89.90
2017-10-10T08:42:35.308Z,89.50
2017-10-10T08:45:03.225Z,90.00
2017-10-10T08:47:44.332Z,89.20
2017-10-10T08:50:19.674Z,89.60
2017-10-10T08:52:50.189Z,89.50
2017-10-10T08:55:17.047Z,88.80
2017-10-10T08:57:43.974Z,89.40
2017-10-10T09:00:12.572Z,88.70
2017-10-10T09:02:39.673Z,88.50
2017-10-10T09:05:06.584Z,88.50
2017-10-10T09:07:33.469Z,88.20
2017-10-10T09:10:00.445Z,88.50
2017-10-10T09:12:27.380Z,88.80
2017-10-10T09:14:54.243Z,88.70
2017-10-10T09:17:23.225Z,89.30
2017-10-10T09:19:57.324Z,89.40
2017-10-10T09:22:24.376Z,89.50
2017-10-10T09:27:40.940Z,88.20
2017-10-10T09:30:10.149Z,88.00
2017-10-10T09:32:37.193Z,88.00
2017-10-10T09:35:04.813Z,88.80
2017-10-10T09:37:31.673Z,88.70
2017-10-10T09:39:58.605Z,88.50
2017-10-10T09:42:25.520Z,88.70
2017-10-10T09:44:54.173Z,88.80
2017-10-10T09:47:21.197Z,88.90
2017-10-10T09:49:49.494Z,89.20
2017-10-10T09:52:16.498Z,89.10
2017-10-10T09:54:43.416Z,90.20
2017-10-10T09:57:10.281Z,89.90
2017-10-10T09:59:37.214Z,88.70
2017-10-10T10:02:04.126Z,88.30
2017-10-10T10:04:30.997Z,87.20
2017-10-10T10:07:00.032Z,87.40
2017-10-10T10:09:27.027Z,87.40
2017-10-10T10:11:54.687Z,88.70
2017-10-10T10:14:26.233Z,88.00
2017-10-10T10:17:01.017Z,88.00
2017-10-10T10:19:33.457Z,88.60
2017-10-10T10:22:04.164Z,88.50
2017-10-10T10:24:39.262Z,88.60
2017-10-10T10:27:08.804Z,88.70
2017-10-10T10:29:36.452Z,88.90
2017-10-10T10:32:03.336Z,88.60
2017-10-10T10:34:30.991Z,88.40
2017-10-10T10:37:00.187Z,88.40
2017-10-10T10:39:40.897Z,88.90
2017-10-10T10:42:17.856Z,88.80
2017-10-10T10:44:47.541Z,89.10
2017-10-10T10:47:14.391Z,88.70
2017-10-10T10:49:45.827Z,88.70
2017-10-10T10:52:12.771Z,88.90
2017-10-10T10:54:39.656Z,88.50
2017-10-10T10:57:07.301Z,90.10
2017-10-10T10:59:34.169Z,90.10
2017-10-10T11:02:01.839Z,89.90
2017-10-10T11:04:28.682Z,89.90
2017-10-10T11:06:55.619Z,89.80
2017-10-10T11:09:23.280Z,90.10
2017-10-10T11:11:56.969Z,90.40
2017-10-10T11:14:27.496Z,90.40
2017-10-10T11:16:56.558Z,90.60
2017-10-10T11:19:23.533Z,90.60
2017-10-10T11:21:55.839Z,90.80
2017-10-10T11:24:22.769Z,90.50
2017-10-10T11:26:54.078Z,90.60
2017-10-10T11:29:36.543Z,90.60
2017-10-10T11:32:18.968Z,90.50
2017-10-10T11:34:59.589Z,90.30
2017-10-10T11:37:43.450Z,90.50
2017-10-10T11:40:12.984Z,90.50
2017-10-10T11:42:41.099Z,90.70
2017-10-10T11:45:08.809Z,90.70
2017-10-10T11:47:36.890Z,90.60
2017-10-10T11:50:04.636Z,90.70
2017-10-10T11:52:32.230Z,90.50
2017-10-10T11:54:59.223Z,90.50
2017-10-10T11:57:26.305Z,90.40
2017-10-10T11:59:56.420Z,90.30
2017-10-10T12:02:24.322Z,90.80
2017-10-10T12:04:53.788Z,90.60
2017-10-10T12:07:20.975Z,90.50
2017-10-10T12:09:47.973Z,90.40
2017-10-10T12:12:15.730Z,90.10
2017-10-10T12:14:42.891Z,90.10
2017-10-10T12:17:09.754Z,90.00
2017-10-10T12:19:37.418Z,89.70
2017-10-10T12:22:04.279Z,89.70
2017-10-10T12:24:32.256Z,89.70
2017-10-10T12:26:59.119Z,89.40
2017-10-10T12:29:27.861Z,89.50
2017-10-10T12:31:55.003Z,89.10
2017-10-10T12:34:22.677Z,88.50
2017-10-10T12:36:49.885Z,88.40
2017-10-10T12:39:18.938Z,88.30
2017-10-10T12:41:56.046Z,86.60
2017-10-10T12:44:35.021Z,85.80
2017-10-10T12:47:08.188Z,86.10
2017-10-10T12:49:35.265Z,85.80
2017-10-10T12:52:17.099Z,86.70
2017-10-10T12:54:56.500Z,86.30
2017-10-10T12:57:24.230Z,86.60
2017-10-10T12:59:51.183Z,87.00
2017-10-10T13:02:18.180Z,87.70
2017-10-10T13:04:45.179Z,86.80
2017-10-10T13:07:12.024Z,87.40
2017-10-10T13:09:39.015Z,88.00
2017-10-10T13:12:06.636Z,88.10
2017-10-10T13:14:33.475Z,88.10
2017-10-10T13:17:00.392Z,88.40
2017-10-10T13:19:27.263Z,88.30
2017-10-10T13:21:54.216Z,88.20
2017-10-10T13:24:21.175Z,87.80
2017-10-10T13:26:48.049Z,87.80
2017-10-10T13:29:15.773Z,88.60
2017-10-10T13:31:42.640Z,88.60
2017-10-10T13:34:09.502Z,89.00
2017-10-10T13:36:37.274Z,89.20
2017-10-10T13:39:04.359Z,89.30
2017-10-10T13:41:31.309Z,89.20
2017-10-10T13:43:58.165Z,89.30
2017-10-10T13:46:25.016Z,89.30
2017-10-10T13:48:52.068Z,88.70
2017-10-10T13:51:19.044Z,88.70
2017-10-10T13:53:46.707Z,88.00
2017-10-10T13:56:14.316Z,87.80
2017-10-10T13:58:41.159Z,87.70
2017-10-10T14:01:08.139Z,87.80
2017-10-10T14:03:34.987Z,87.40
2017-10-10T14:06:01.833Z,86.70
2017-10-10T14:08:29.517Z,87.30
2017-10-10T14:10:56.360Z,86.80
2017-10-10T14:13:24.004Z,87.10
2017-10-10T14:15:51.680Z,87.50
2017-10-10T14:18:18.538Z,87.40
2017-10-10T14:20:45.475Z,87.50
2017-10-10T14:23:13.133Z,87.40
2017-10-10T14:25:39.993Z,87.40
2017-10-10T14:28:06.930Z,87.60
2017-10-10T14:30:33.865Z,87.70
2017-10-10T14:33:01.484Z,87.70
2017-10-10T14:35:28.397Z,87.70
2017-10-10T14:37:55.323Z,87.70
2017-10-10T14:40:22.269Z,87.40
2017-10-10T14:42:49.880Z,86.90
2017-10-10T14:45:16.888Z,86.80
2017-10-10T14:47:43.890Z,86.70
2017-10-10T14:50:10.809Z,86.30
2017-10-10T14:52:37.745Z,86.70
2017-10-10T14:55:04.612Z,86.60
2017-10-10T14:57:31.525Z,87.30
2017-10-10T14:59:58.382Z,87.10
2017-10-10T15:02:25.248Z,87.30
2017-10-10T15:04:52.169Z,87.60
2017-10-10T15:07:19.017Z,88.00
2017-10-10T15:09:45.943Z,88.00
2017-10-10T15:12:12.793Z,88.20
2017-10-10T15:14:39.637Z,88.70
2017-10-10T15:17:06.562Z,88.30
2017-10-10T15:19:42.549Z,90.00
2017-10-10T15:22:11.549Z,90.00
2017-10-10T15:24:38.479Z,88.70
2017-10-10T15:27:05.417Z,88.10
2017-10-10T15:29:32.992Z,88.40
2017-10-10T15:31:59.928Z,88.40
2017-10-10T15:34:28.088Z,88.70
2017-10-10T15:36:55.265Z,88.80
2017-10-10T15:39:22.265Z,88.70
2017-10-10T15:41:49.151Z,88.80
2017-10-10T15:44:16.260Z,89.70
2017-10-10T15:46:51.792Z,89.00
2017-10-10T15:49:20.477Z,88.90
2017-10-10T15:51:51.878Z,89.20
2017-10-10T15:54:30.307Z,89.60
2017-10-10T15:56:57.636Z,89.70
2017-10-10T15:59:24.669Z,89.90
2017-10-10T16:01:56.746Z,89.80
2017-10-10T16:04:24.407Z,90.10
2017-10-10T16:06:52.004Z,90.00
2017-10-10T16:09:32.358Z,90.00
2017-10-10T16:12:12.095Z,90.00
2017-10-10T16:14:55.393Z,90.00
2017-10-10T16:17:24.355Z,90.40
2017-10-10T16:19:51.271Z,90.00
2017-10-10T16:22:25.963Z,90.00
2017-10-10T16:24:58.889Z,90.00
2017-10-10T16:27:25.744Z,90.00
2017-10-10T16:29:52.706Z,90.30
2017-10-10T16:32:19.656Z,90.00
2017-10-10T16:34:59.199Z,90.20
2017-10-10T16:37:37.060Z,90.30
2017-10-10T16:40:14.582Z,90.40
2017-10-10T16:42:55.142Z,90.40
2017-10-10T16:45:36.164Z,90.60
2017-10-10T16:48:06.461Z,90.60
2017-10-10T16:50:47.981Z,90.50
2017-10-10T16:53:23.196Z,90.70
2017-10-10T16:55:53.648Z,90.70
2017-10-10T16:58:20.972Z,90.70
2017-10-10T17:00:48.775Z,90.70
2017-10-10T17:03:18.425Z,90.70
2017-10-10T17:05:45.376Z,90.70
2017-10-10T17:08:12.525Z,90.70
2017-10-10T17:10:39.446Z,90.60
2017-10-10T17:13:06.370Z,90.50
2017-10-10T17:15:47.356Z,90.60
2017-10-10T17:18:14.270Z,90.60
2017-10-10T17:20:41.175Z,90.50
2017-10-10T17:23:08.039Z,90.50
2017-10-10T17:25:34.960Z,90.50
2017-10-10T17:28:01.872Z,90.50
2017-10-10T17:30:28.824Z,90.70
2017-10-10T17:32:55.736Z,90.90
2017-10-10T17:35:22.601Z,90.80
2017-10-10T17:37:49.475Z,91.00
2017-10-10T17:40:16.400Z,90.90
2017-10-10T17:42:43.272Z,91.10
2017-10-10T17:45:10.841Z,91.20
2017-10-10T17:47:42.111Z,91.30
2017-10-10T17:50:09.104Z,91.20
2017-10-10T17:52:44.744Z,91.30
2017-10-10T17:55:13.521Z,91.40
2017-10-10T17:57:43.790Z,91.20
2017-10-10T18:00:11.419Z,91.20
2017-10-10T18:02:38.376Z,91.20
2017-10-10T18:05:10.684Z,91.30
2017-10-10T18:07:37.611Z,91.20
2017-10-10T18:10:09.880Z,91.30
2017-10-10T18:12:42.759Z,91.30
2017-10-10T18:15:09.648Z,91.30
2017-10-10T18:17:50.431Z,91.50
2017-10-10T18:20:28.392Z,91.50
2017-10-10T18:22:56.053Z,91.40
2017-10-10T18:25:33.289Z,91.40
2017-10-10T18:28:01.044Z,91.30
2017-10-10T18:30:30.704Z,91.30
2017-10-10T18:33:01.706Z,91.30
2017-10-10T18:35:28.557Z,91.30
2017-10-10T18:37:55.482Z,91.10
2017-10-10T18:40:22.433Z,91.50
2017-10-10T18:42:49.289Z,91.30
2017-10-10T18:45:16.160Z,91.40
2017-10-10T18:47:43.080Z,91.40
2017-10-10T18:50:10.072Z,91.30
2017-10-10T18:52:37.745Z,91.20
2017-10-10T18:55:04.669Z,91.20
2017-10-10T18:57:31.588Z,91.30
2017-10-10T18:59:58.449Z,91.30
2017-10-10T19:02:39.219Z,91.50
2017-10-10T19:05:09.637Z,91.60
2017-10-10T19:07:36.668Z,91.60
2017-10-10T19:10:03.533Z,91.60
2017-10-10T19:12:30.387Z,91.80
2017-10-10T19:14:57.345Z,91.80
2017-10-10T19:17:24.261Z,91.80
2017-10-10T19:19:51.228Z,91.80
2017-10-10T19:22:18.135Z,91.70
2017-10-10T19:24:52.253Z,91.70
2017-10-10T19:27:26.295Z,91.70
2017-10-10T19:29:53.222Z,91.70
2017-10-10T19:32:20.222Z,91.70
2017-10-10T19:34:49.916Z,91.70
2017-10-10T19:37:17.497Z,91.80
2017-10-10T19:39:44.444Z,91.80
2017-10-10T19:42:11.328Z,91.70
2017-10-10T19:44:38.248Z,91.80
2017-10-10T19:47:05.183Z,91.90
2017-10-10T19:49:32.037Z,92.00
2017-10-10T19:51:58.972Z,91.90
2017-10-10T19:54:25.849Z,91.90
2017-10-10T19:56:52.760Z,92.00
2017-10-10T19:59:19.652Z,92.20
2017-10-10T20:01:46.647Z,92.30
2017-10-10T20:04:13.500Z,92.10
2017-10-10T20:06:40.360Z,92.10
2017-10-10T20:09:07.285Z,92.10
2017-10-10T20:11:34.196Z,92.10
2017-10-10T20:14:01.091Z,92.10
2017-10-10T20:16:28.111Z,92.00
2017-10-10T20:18:54.952Z,92.00
2017-10-10T20:21:21.804Z,92.00
2017-10-10T20:23:49.471Z,92.00
2017-10-10T20:26:16.426Z,92.00
2017-10-10T20:28:43.360Z,91.80
2017-10-10T20:31:10.956Z,91.60
2017-10-10T20:33:37.812Z,91.60
2017-10-10T20:36:04.805Z,91.60
2017-10-10T20:38:31.804Z,91.70
2017-10-10T20:40:58.652Z,91.80
2017-10-10T20:43:25.595Z,91.70
2017-10-10T20:45:52.528Z,91.80
2017-10-10T20:48:19.389Z,91.80
2017-10-10T20:50:46.447Z,91.80
2017-10-10T20:53:13.376Z,91.90
2017-10-10T20:55:40.252Z,91.90
2017-10-10T20:58:07.176Z,92.00
2017-10-10T21:00:34.031Z,91.90
2017-10-10T21:03:00.895Z,91.80
2017-10-10T21:05:30.212Z,91.90
2017-10-10T21:07:57.292Z,92.10
2017-10-10T21:10:24.140Z,91.90
2017-10-10T21:12:50.996Z,91.80
2017-10-10T21:15:17.938Z,91.70
2017-10-10T21:17:44.813Z,91.50
2017-10-10T21:20:11.758Z,91.40
2017-10-10T21:22:38.633Z,91.50
2017-10-10T21:25:06.247Z,91.50
2017-10-10T21:27:33.288Z,91.50
2017-10-10T21:30:00.260Z,91.60
2017-10-10T21:32:31.498Z,91.60
2017-10-10T21:35:03.005Z,91.70
2017-10-10T21:37:32.310Z,91.70
2017-10-10T21:40:02.886Z,91.80
2017-10-10T21:42:29.834Z,91.70
2017-10-10T21:44:56.758Z,91.70
2017-10-10T21:47:23.634Z,91.90
2017-10-10T21:49:50.552Z,91.90
2017-10-10T21:52:17.516Z,92.00
2017-10-10T21:54:44.664Z,92.00
2017-10-10T21:57:11.588Z,92.00
2017-10-10T21:59:38.435Z,92.10
2017-10-10T22:02:05.373Z,92.20
2017-10-10T22:04:32.288Z,92.20
2017-10-10T22:07:00.875Z,92.40
2017-10-10T22:09:28.487Z,92.30
2017-10-10T22:11:55.422Z,92.30
2017-10-10T22:14:22.296Z,92.40
2017-10-10T22:16:49.261Z,92.40
2017-10-10T22:19:16.124Z,92.50
2017-10-10T22:21:43.040Z,92.40
2017-10-10T22:24:09.920Z,92.40
2017-10-10T22:26:36.852Z,92.30
2017-10-10T22:29:06.743Z,92.30
2017-10-10T22:31:33.804Z,92.30
2017-10-10T22:34:01.485Z,92.30
2017-10-10T22:36:28.349Z,92.30
2017-10-10T22:38:55.612Z,92.30
2017-10-10T22:41:25.331Z,92.60
2017-10-10T22:43:52.326Z,92.30
2017-10-10T22:46:20.008Z,92.20
2017-10-10T22:48:46.869Z,92.20
2017-10-10T22:51:15.988Z,92.10
2017-10-10T22:53:43.303Z,92.00
2017-10-10T22:56:10.801Z,92.00
2017-10-10T22:58:37.704Z,91.90
2017-10-10T23:01:04.607Z,92.00
2017-10-10T23:03:33.343Z,91.90
2017-10-10T23:06:00.360Z,91.90
2017-10-10T23:08:27.228Z,91.90
2017-10-10T23:10:54.151Z,91.70
2017-10-10T23:13:21.052Z,91.70
2017-10-10T23:15:48.048Z,91.60
2017-10-10T23:18:14.913Z,91.60
2017-10-10T23:20:41.815Z,91.60
2017-10-10T23:23:08.722Z,91.80
2017-10-10T23:25:35.636Z,91.90
2017-10-10T23:28:02.480Z,92.10
2017-10-10T23:30:29.399Z,92.10
2017-10-10T23:32:56.324Z,92.10
2017-10-10T23:35:23.183Z,92.00
2017-10-10T23:37:50.044Z,92.00
2017-10-10T23:40:16.973Z,91.80
2017-10-10T23:42:43.889Z,91.90
2017-10-10T23:45:10.831Z,91.90
2017-10-10T23:47:37.680Z,91.80
2017-10-10T23:50:04.528Z,91.90
2017-10-10T23:52:32.404Z,91.90
2017-10-10T23:54:59.313Z,91.90
2017-10-10T23:57:26.270Z,91.90
2017-10-10T23:59:53.206Z,91.80
